createdAt,value
2019-01-28T00:00:23.717Z,5.58
2019-01-28T00:01:23.695Z,5.58
2019-01-28T00:02:23.671Z,5.57
2019-01-28T00:03:23.656Z,5.59
2019-01-28T00:04:23.624Z,5.48
2019-01-28T00:05:23.605Z,5.62
2019-01-28T00:06:23.584Z,5.57
2019-01-28T00:07:23.564Z,5.59
2019-01-28T00:08:23.537Z,5.57
2019-01-28T00:09:23.517Z,5.52
2019-01-28T00:10:23.491Z,5.65
2019-01-28T00:11:23.470Z,5.61
2019-01-28T00:12:23.445Z,5.50
2019-01-28T00:13:23.427Z,5.52
2019-01-28T00:14:23.396Z,5.57
2019-01-28T00:15:23.381Z,5.62
2019-01-28T00:16:23.354Z,5.61
2019-01-28T00:17:23.335Z,5.65
2019-01-28T00:18:23.317Z,5.52
2019-01-28T00:19:23.285Z,5.61
2019-01-28T00:20:23.308Z,5.58
2019-01-28T00:21:23.245Z,5.51
2019-01-28T00:22:23.221Z,5.50
2019-01-28T00:23:23.195Z,5.52
2019-01-28T00:24:23.177Z,5.65
2019-01-28T00:25:23.155Z,5.57
2019-01-28T00:26:23.128Z,5.69
2019-01-28T00:27:23.109Z,5.62
2019-01-28T00:28:23.090Z,5.61
2019-01-28T00:29:23.059Z,5.57
2019-01-28T00:30:23.035Z,5.67
2019-01-28T00:31:23.017Z,5.57
2019-01-28T00:32:22.992Z,5.58
2019-01-28T00:33:22.969Z,5.58
2019-01-28T00:34:22.950Z,5.58
2019-01-28T00:35:22.928Z,5.65
2019-01-28T00:36:22.912Z,5.59
2019-01-28T00:37:22.881Z,5.59
2019-01-28T00:38:22.855Z,5.65
2019-01-28T00:39:22.830Z,5.62
2019-01-28T00:40:22.807Z,5.66
2019-01-28T00:41:22.791Z,5.51
2019-01-28T00:42:22.762Z,5.55
2019-01-28T00:43:22.741Z,5.51
2019-01-28T00:44:22.718Z,5.62
2019-01-28T00:45:22.697Z,5.52
2019-01-28T00:46:22.673Z,5.51
2019-01-28T00:47:22.649Z,5.58
2019-01-28T00:48:22.629Z,5.54
2019-01-28T00:49:22.609Z,5.59
2019-01-28T00:50:22.632Z,5.50
2019-01-28T00:51:22.561Z,5.55
2019-01-28T00:52:22.535Z,5.59
2019-01-28T00:53:22.519Z,5.40
2019-01-28T00:54:22.497Z,5.44
2019-01-28T00:55:22.467Z,5.43
2019-01-28T00:56:22.448Z,5.44
2019-01-28T00:57:22.428Z,5.48
2019-01-28T00:58:22.398Z,5.41
2019-01-28T00:59:22.375Z,5.44
2019-01-28T01:00:22.352Z,5.50
2019-01-28T01:01:22.330Z,5.43
2019-01-28T01:02:22.308Z,5.51
2019-01-28T01:03:22.282Z,5.47
2019-01-28T01:04:22.264Z,5.43
2019-01-28T01:05:22.300Z,5.41
2019-01-28T01:06:22.222Z,5.44
2019-01-28T01:07:22.201Z,5.51
2019-01-28T01:08:22.171Z,5.48
2019-01-28T01:09:22.149Z,5.51
2019-01-28T01:10:22.130Z,5.47
2019-01-28T01:11:22.110Z,5.43
2019-01-28T01:12:22.082Z,5.44
2019-01-28T01:13:22.056Z,5.40
2019-01-28T01:14:22.040Z,5.47
2019-01-28T01:15:22.017Z,5.50
2019-01-28T01:16:21.991Z,5.44
2019-01-28T01:17:21.967Z,5.47
2019-01-28T01:18:21.943Z,5.41
2019-01-28T01:19:21.922Z,5.39
2019-01-28T01:20:21.898Z,5.44
2019-01-28T01:21:21.879Z,5.51
2019-01-28T01:22:21.854Z,5.47
2019-01-28T01:23:21.831Z,5.41
2019-01-28T01:24:21.809Z,5.44
2019-01-28T01:25:21.788Z,5.51
2019-01-28T01:26:21.760Z,5.52
2019-01-28T01:27:21.740Z,5.52
2019-01-28T01:28:21.723Z,5.43
2019-01-28T01:29:21.694Z,5.48
2019-01-28T01:30:21.670Z,5.41
2019-01-28T01:31:21.652Z,5.48
2019-01-28T01:32:21.625Z,5.44
2019-01-28T01:33:21.606Z,5.43
2019-01-28T01:34:21.577Z,5.39
2019-01-28T01:35:21.556Z,5.40
2019-01-28T01:36:21.537Z,5.43
2019-01-28T01:37:21.516Z,5.39
2019-01-28T01:38:21.486Z,5.39
2019-01-28T01:39:21.506Z,5.47
2019-01-28T01:40:21.441Z,5.50
2019-01-28T01:41:21.421Z,5.44
2019-01-28T01:42:21.391Z,5.48
2019-01-28T01:43:21.369Z,5.34
2019-01-28T01:44:21.346Z,5.32
2019-01-28T01:45:21.326Z,5.29
2019-01-28T01:46:21.303Z,5.14
2019-01-28T01:47:21.282Z,5.22
2019-01-28T01:48:21.258Z,5.32
2019-01-28T01:49:21.232Z,5.25
2019-01-28T01:50:21.209Z,5.30
2019-01-28T01:51:21.186Z,5.30
2019-01-28T01:52:21.165Z,5.34
2019-01-28T01:53:21.141Z,5.24
2019-01-28T01:54:21.117Z,5.29
2019-01-28T01:55:21.095Z,5.33
2019-01-28T01:56:21.076Z,5.29
2019-01-28T01:57:21.050Z,5.25
2019-01-28T01:58:21.030Z,5.40
2019-01-28T01:59:21.006Z,5.33
2019-01-28T02:00:20.980Z,5.37
2019-01-28T02:01:20.960Z,5.32
2019-01-28T02:02:20.936Z,5.43
2019-01-28T02:03:20.912Z,5.39
2019-01-28T02:04:20.888Z,5.41
2019-01-28T02:05:20.866Z,5.29
2019-01-28T02:06:20.841Z,5.25
2019-01-28T02:07:20.820Z,5.27
2019-01-28T02:08:20.795Z,5.24
2019-01-28T02:09:20.774Z,5.25
2019-01-28T02:10:20.749Z,5.29
2019-01-28T02:11:20.727Z,5.24
2019-01-28T02:12:20.704Z,5.34
2019-01-28T02:13:20.682Z,5.29
2019-01-28T02:14:20.661Z,5.18
2019-01-28T02:15:20.636Z,5.22
2019-01-28T02:16:20.617Z,5.14
2019-01-28T02:17:20.593Z,5.21
2019-01-28T02:18:20.565Z,5.21
2019-01-28T02:19:20.544Z,5.25
2019-01-28T02:20:20.521Z,5.22
2019-01-28T02:21:20.497Z,5.18
2019-01-28T02:22:20.471Z,5.11
2019-01-28T02:23:20.451Z,5.24
2019-01-28T02:24:20.427Z,5.16
2019-01-28T02:25:20.404Z,5.18
2019-01-28T02:26:20.383Z,5.21
2019-01-28T02:27:20.358Z,5.22
2019-01-28T02:28:20.338Z,5.22
2019-01-28T02:29:20.313Z,5.07
2019-01-28T02:30:20.288Z,5.07
2019-01-28T02:31:20.269Z,5.15
2019-01-28T02:32:20.243Z,5.14
2019-01-28T02:33:20.221Z,5.15
2019-01-28T02:34:20.201Z,5.18
2019-01-28T02:35:20.174Z,5.22
2019-01-28T02:36:20.152Z,5.09
2019-01-28T02:37:20.128Z,5.01
2019-01-28T02:38:20.105Z,5.03
2019-01-28T02:39:20.086Z,5.01
2019-01-28T02:40:20.059Z,5.07
2019-01-28T02:41:20.036Z,5.03
2019-01-28T02:42:20.017Z,5.00
2019-01-28T02:43:19.990Z,5.00
2019-01-28T02:44:19.969Z,5.06
2019-01-28T02:45:19.952Z,5.00
2019-01-28T02:46:19.928Z,4.91
2019-01-28T02:47:19.898Z,4.91
2019-01-28T02:48:19.877Z,4.88
2019-01-28T02:49:19.851Z,4.86
2019-01-28T02:50:19.828Z,4.83
2019-01-28T02:51:19.808Z,4.86
2019-01-28T02:52:19.787Z,4.78
2019-01-28T02:53:19.761Z,4.85
2019-01-28T02:54:19.734Z,4.71
2019-01-28T02:55:19.712Z,4.72
2019-01-28T02:56:19.697Z,4.67
2019-01-28T02:57:19.666Z,4.71
2019-01-28T02:58:19.647Z,4.78
2019-01-28T02:59:19.625Z,4.74
2019-01-28T03:00:19.598Z,4.77
2019-01-28T03:01:19.572Z,4.74
2019-01-28T03:02:19.547Z,4.71
2019-01-28T03:03:19.529Z,4.71
2019-01-28T03:04:19.504Z,4.72
2019-01-28T03:05:19.489Z,4.75
2019-01-28T03:06:19.458Z,4.67
2019-01-28T03:07:19.436Z,4.67
2019-01-28T03:08:19.420Z,4.64
2019-01-28T03:09:19.390Z,4.79
2019-01-28T03:10:19.369Z,4.75
2019-01-28T03:11:19.341Z,4.71
2019-01-28T03:12:19.318Z,4.75
2019-01-28T03:13:19.293Z,4.71
2019-01-28T03:14:19.274Z,4.69
2019-01-28T03:15:19.247Z,4.79
2019-01-28T03:16:19.228Z,4.75
2019-01-28T03:17:19.202Z,4.83
2019-01-28T03:18:19.180Z,4.77
2019-01-28T03:19:19.158Z,4.79
2019-01-28T03:20:19.130Z,4.79
2019-01-28T03:21:19.114Z,4.85
2019-01-28T03:22:19.082Z,4.85
2019-01-28T03:23:19.065Z,4.86
2019-01-28T03:24:19.040Z,4.67
2019-01-28T03:25:19.018Z,4.72
2019-01-28T03:26:18.993Z,4.74
2019-01-28T03:27:18.966Z,4.78
2019-01-28T03:28:18.948Z,4.82
2019-01-28T03:29:18.924Z,4.69
2019-01-28T03:30:18.906Z,4.69
2019-01-28T03:31:18.877Z,4.66
2019-01-28T03:32:18.852Z,4.61
2019-01-28T03:33:18.838Z,4.63
2019-01-28T03:34:18.803Z,4.66
2019-01-28T03:35:18.781Z,4.63
2019-01-28T03:36:18.758Z,4.67
2019-01-28T03:37:18.737Z,4.72
2019-01-28T03:38:18.715Z,4.77
2019-01-28T03:39:18.696Z,4.78
2019-01-28T03:40:18.666Z,4.75
2019-01-28T03:41:18.639Z,4.66
2019-01-28T03:42:18.619Z,4.60
2019-01-28T03:43:18.596Z,4.64
2019-01-28T03:44:18.574Z,4.61
2019-01-28T03:45:18.551Z,4.56
2019-01-28T03:46:18.525Z,4.46
2019-01-28T03:47:18.504Z,4.43
2019-01-28T03:48:18.482Z,4.49
2019-01-28T03:49:18.454Z,4.46
2019-01-28T03:50:18.443Z,4.46
2019-01-28T03:51:18.408Z,4.46
2019-01-28T03:52:18.387Z,4.57
2019-01-28T03:53:18.361Z,4.61
2019-01-28T03:54:18.336Z,4.61
2019-01-28T03:55:18.315Z,4.63
2019-01-28T03:56:18.291Z,4.66
2019-01-28T03:57:18.269Z,4.66
2019-01-28T03:58:18.247Z,4.69
2019-01-28T03:59:18.226Z,4.63
2019-01-28T04:00:18.203Z,4.64
2019-01-28T04:01:18.176Z,4.54
2019-01-28T04:02:18.160Z,4.60
2019-01-28T04:03:18.131Z,4.61
2019-01-28T04:04:18.107Z,4.54
2019-01-28T04:05:18.084Z,4.54
2019-01-28T04:06:18.059Z,4.57
2019-01-28T04:07:18.039Z,4.59
2019-01-28T04:08:18.015Z,4.57
2019-01-28T04:09:17.991Z,4.66
2019-01-28T04:10:17.969Z,4.60
2019-01-28T04:11:17.948Z,4.59
2019-01-28T04:12:17.928Z,4.60
2019-01-28T04:13:17.900Z,4.69
2019-01-28T04:14:17.870Z,4.61
2019-01-28T04:15:17.852Z,4.59
2019-01-28T04:16:17.823Z,4.53
2019-01-28T04:17:17.800Z,4.46
2019-01-28T04:18:17.781Z,4.48
2019-01-28T04:19:17.754Z,4.48
2019-01-28T04:20:17.731Z,4.42
2019-01-28T04:21:17.707Z,4.42
2019-01-28T04:22:17.685Z,4.42
2019-01-28T04:23:17.666Z,4.46
2019-01-28T04:24:17.647Z,4.41
2019-01-28T04:25:17.623Z,4.42
2019-01-28T04:26:17.602Z,4.48
2019-01-28T04:27:17.566Z,4.46
2019-01-28T04:28:17.545Z,4.51
2019-01-28T04:29:17.522Z,4.46
2019-01-28T04:30:17.497Z,4.45
2019-01-28T04:31:17.489Z,4.48
2019-01-28T04:32:17.452Z,4.46
2019-01-28T04:33:17.433Z,4.49
2019-01-28T04:34:17.404Z,4.43
2019-01-28T04:35:17.381Z,4.45
2019-01-28T04:36:17.357Z,4.43
2019-01-28T04:37:17.345Z,4.46
2019-01-28T04:38:17.310Z,4.43
2019-01-28T04:39:17.287Z,4.38
2019-01-28T04:40:17.267Z,4.28
2019-01-28T04:41:17.240Z,4.28
2019-01-28T04:42:17.217Z,4.34
2019-01-28T04:43:17.202Z,4.30
2019-01-28T04:44:18.149Z,4.36
2019-01-28T04:45:17.159Z,4.34
2019-01-28T04:46:17.125Z,4.31
2019-01-28T04:47:17.104Z,4.35
2019-01-28T04:48:17.076Z,4.34
2019-01-28T04:49:17.059Z,4.34
2019-01-28T04:50:17.032Z,4.36
2019-01-28T04:51:17.013Z,4.35
2019-01-28T04:52:16.990Z,4.35
2019-01-28T04:53:16.963Z,4.35
2019-01-28T04:54:16.943Z,4.39
2019-01-28T04:55:16.921Z,4.38
2019-01-28T04:56:16.893Z,4.27
2019-01-28T04:57:16.869Z,4.38
2019-01-28T04:58:16.844Z,4.34
2019-01-28T04:59:16.824Z,4.24
2019-01-28T05:00:16.831Z,4.20
2019-01-28T05:01:16.787Z,4.34
2019-01-28T05:02:16.750Z,4.28
2019-01-28T05:03:16.728Z,4.21
2019-01-28T05:04:16.703Z,4.23
2019-01-28T05:05:16.680Z,4.27
2019-01-28T05:06:16.663Z,4.30
2019-01-28T05:07:16.634Z,4.31
2019-01-28T05:08:16.611Z,4.30
2019-01-28T05:09:16.589Z,4.30
2019-01-28T05:10:16.565Z,4.28
2019-01-28T05:11:16.539Z,4.39
2019-01-28T05:12:16.522Z,4.28
2019-01-28T05:13:16.493Z,4.35
2019-01-28T05:14:16.468Z,4.24
2019-01-28T05:15:16.449Z,4.30
2019-01-28T05:16:16.434Z,4.36
2019-01-28T05:17:16.411Z,4.34
2019-01-28T05:18:16.377Z,4.38
2019-01-28T05:19:16.354Z,4.41
2019-01-28T05:20:16.328Z,4.43
2019-01-28T05:21:16.313Z,4.38
2019-01-28T05:22:16.280Z,4.45
2019-01-28T05:23:16.259Z,4.41
2019-01-28T05:24:16.251Z,4.34
2019-01-28T05:25:16.214Z,4.42
2019-01-28T05:26:16.194Z,4.35
2019-01-28T05:27:16.164Z,4.31
2019-01-28T05:28:16.147Z,4.34
2019-01-28T05:29:16.123Z,4.35
2019-01-28T05:30:16.095Z,4.30
2019-01-28T05:31:16.127Z,4.35
2019-01-28T05:32:16.046Z,4.31
2019-01-28T05:33:16.026Z,4.46
2019-01-28T05:34:15.999Z,4.48
2019-01-28T05:35:15.977Z,4.39
2019-01-28T05:36:15.962Z,4.34
2019-01-28T05:37:15.930Z,4.39
2019-01-28T05:38:15.907Z,4.35
2019-01-28T05:39:15.885Z,4.31
2019-01-28T05:40:15.871Z,4.36
2019-01-28T05:41:15.840Z,4.46
2019-01-28T05:42:15.812Z,4.48
2019-01-28T05:43:15.802Z,4.35
2019-01-28T05:44:15.766Z,4.43
2019-01-28T05:45:15.744Z,4.42
2019-01-28T05:46:15.720Z,4.45
2019-01-28T05:47:15.697Z,4.43
2019-01-28T05:48:15.678Z,4.45
2019-01-28T05:49:15.650Z,4.51
2019-01-28T05:50:15.627Z,4.59
2019-01-28T05:51:15.603Z,4.51
2019-01-28T05:52:15.581Z,4.51
2019-01-28T05:53:15.556Z,4.45
2019-01-28T05:54:15.537Z,4.56
2019-01-28T05:55:15.508Z,4.60
2019-01-28T05:56:15.493Z,4.53
2019-01-28T05:57:15.463Z,4.49
2019-01-28T05:58:15.441Z,4.46
2019-01-28T05:59:15.417Z,4.53
2019-01-28T06:00:15.396Z,4.54
2019-01-28T06:01:15.371Z,4.51
2019-01-28T06:02:18.054Z,4.51
2019-01-28T06:03:15.327Z,4.53
2019-01-28T06:04:15.302Z,4.53
2019-01-28T06:05:15.317Z,4.54
2019-01-28T06:06:15.257Z,4.59
2019-01-28T06:07:15.230Z,4.54
2019-01-28T06:08:15.209Z,4.59
2019-01-28T06:09:15.190Z,4.57
2019-01-28T06:10:15.161Z,4.57
2019-01-28T06:11:15.142Z,4.61
2019-01-28T06:12:15.116Z,4.53
2019-01-28T06:13:15.094Z,4.54
2019-01-28T06:14:15.073Z,4.60
2019-01-28T06:15:15.045Z,4.57
2019-01-28T06:16:15.022Z,4.53
2019-01-28T06:17:15.099Z,4.56
2019-01-28T06:18:14.974Z,4.60
2019-01-28T06:19:14.958Z,4.53
2019-01-28T06:20:14.929Z,4.53
2019-01-28T06:21:14.905Z,4.57
2019-01-28T06:22:14.885Z,4.54
2019-01-28T06:23:14.868Z,4.53
2019-01-28T06:24:14.838Z,4.56
2019-01-28T06:25:14.814Z,4.57
2019-01-28T06:26:14.788Z,4.48
2019-01-28T06:27:14.764Z,4.51
2019-01-28T06:28:14.744Z,4.57
2019-01-28T06:29:14.719Z,4.60
2019-01-28T06:30:14.698Z,4.60
2019-01-28T06:31:14.672Z,4.63
2019-01-28T06:32:15.719Z,4.64
2019-01-28T06:33:14.629Z,4.63
2019-01-28T06:34:14.610Z,4.63
2019-01-28T06:35:14.579Z,4.63
2019-01-28T06:36:14.558Z,4.71
2019-01-28T06:37:14.535Z,4.74
2019-01-28T06:38:14.510Z,4.75
2019-01-28T06:39:14.496Z,4.71
2019-01-28T06:40:14.465Z,4.72
2019-01-28T06:41:14.441Z,4.72
2019-01-28T06:42:14.416Z,4.74
2019-01-28T06:43:14.404Z,4.71
2019-01-28T06:44:14.368Z,4.74
2019-01-28T06:45:14.361Z,4.77
2019-01-28T06:46:14.323Z,4.77
2019-01-28T06:47:14.300Z,4.72
2019-01-28T06:48:14.282Z,4.77
2019-01-28T06:49:14.256Z,4.75
2019-01-28T06:50:14.229Z,4.77
2019-01-28T06:51:14.207Z,4.74
2019-01-28T06:52:14.189Z,4.78
2019-01-28T06:53:14.161Z,4.71
2019-01-28T06:54:14.141Z,4.77
2019-01-28T06:55:14.115Z,4.74
2019-01-28T06:56:14.093Z,4.93
2019-01-28T06:57:14.068Z,4.89
2019-01-28T06:58:14.047Z,5.00
2019-01-28T06:59:14.021Z,5.00
2019-01-28T07:00:14.011Z,4.89
2019-01-28T07:01:13.979Z,4.91
2019-01-28T07:02:13.953Z,5.00
2019-01-28T07:03:13.933Z,4.98
2019-01-28T07:04:13.904Z,4.97
2019-01-28T07:05:13.882Z,5.01
2019-01-28T07:06:13.859Z,5.04
2019-01-28T07:07:13.836Z,5.06
2019-01-28T07:08:13.815Z,5.14
2019-01-28T07:09:13.791Z,5.06
2019-01-28T07:10:13.768Z,5.11
2019-01-28T07:11:13.749Z,5.03
2019-01-28T07:12:13.722Z,5.14
2019-01-28T07:13:13.703Z,5.00
2019-01-28T07:14:13.673Z,5.14
2019-01-28T07:15:13.664Z,5.07
2019-01-28T07:16:13.633Z,5.01
2019-01-28T07:17:13.616Z,5.06
2019-01-28T07:18:13.583Z,5.14
2019-01-28T07:19:13.561Z,5.09
2019-01-28T07:20:13.541Z,5.06
2019-01-28T07:21:13.515Z,5.14
2019-01-28T07:22:13.492Z,5.15
2019-01-28T07:23:13.470Z,5.18
2019-01-28T07:24:13.447Z,5.16
2019-01-28T07:25:13.425Z,5.12
2019-01-28T07:26:13.407Z,5.06
2019-01-28T07:27:13.381Z,5.15
2019-01-28T07:28:13.357Z,5.14
2019-01-28T07:29:13.335Z,5.14
2019-01-28T07:30:13.314Z,5.07
2019-01-28T07:31:13.288Z,5.11
2019-01-28T07:32:13.263Z,5.11
2019-01-28T07:33:13.240Z,5.11
2019-01-28T07:34:13.217Z,5.14
2019-01-28T07:35:13.191Z,5.14
2019-01-28T07:36:13.172Z,5.21
2019-01-28T07:37:13.151Z,5.27
2019-01-28T07:38:13.123Z,5.19
2019-01-28T07:39:13.110Z,5.24
2019-01-28T07:40:13.082Z,5.18
2019-01-28T07:41:13.057Z,5.19
2019-01-28T07:42:13.034Z,5.18
2019-01-28T07:43:13.009Z,5.19
2019-01-28T07:44:12.998Z,5.29
2019-01-28T07:45:12.975Z,5.29
2019-01-28T07:46:12.946Z,5.34
2019-01-28T07:47:12.925Z,5.33
2019-01-28T07:48:12.907Z,5.27
2019-01-28T07:49:12.874Z,5.24
2019-01-28T07:50:12.852Z,5.27
2019-01-28T07:51:12.830Z,5.22
2019-01-28T07:52:12.805Z,5.33
2019-01-28T07:53:12.784Z,5.36
2019-01-28T07:54:12.764Z,5.33
2019-01-28T07:55:13.349Z,5.40
2019-01-28T07:56:12.712Z,5.34
2019-01-28T07:57:12.691Z,5.33
2019-01-28T07:58:12.668Z,5.44
2019-01-28T07:59:12.643Z,5.32
2019-01-28T08:00:12.620Z,5.37
2019-01-28T08:01:12.604Z,5.47
2019-01-28T08:02:12.573Z,5.39
2019-01-28T08:03:12.555Z,5.50
2019-01-28T08:04:12.528Z,5.43
2019-01-28T08:05:12.508Z,5.40
2019-01-28T08:06:12.483Z,5.48
2019-01-28T08:07:12.536Z,5.47
2019-01-28T08:08:12.441Z,5.43
2019-01-28T08:09:12.417Z,5.39
2019-01-28T08:10:12.393Z,5.40
2019-01-28T08:11:12.375Z,5.41
2019-01-28T08:12:12.353Z,5.44
2019-01-28T08:13:12.326Z,5.43
2019-01-28T08:14:12.304Z,5.37
2019-01-28T08:15:12.287Z,5.48
2019-01-28T08:16:12.268Z,5.48
2019-01-28T08:17:12.236Z,5.41
2019-01-28T08:18:12.212Z,5.47
2019-01-28T08:19:12.199Z,5.50
2019-01-28T08:20:12.176Z,5.40
2019-01-28T08:21:12.149Z,5.48
2019-01-28T08:22:12.491Z,5.47
2019-01-28T08:23:12.102Z,5.54
2019-01-28T08:24:12.078Z,5.48
2019-01-28T08:25:12.057Z,5.50
2019-01-28T08:26:12.034Z,5.54
2019-01-28T08:27:12.011Z,5.57
2019-01-28T08:28:11.988Z,5.59
2019-01-28T08:29:11.966Z,5.58
2019-01-28T08:30:11.943Z,5.52
2019-01-28T08:31:11.927Z,5.52
2019-01-28T08:32:11.894Z,5.52
2019-01-28T08:33:11.872Z,5.50
2019-01-28T08:34:11.850Z,5.54
2019-01-28T08:35:11.827Z,5.59
2019-01-28T08:36:11.803Z,5.58
2019-01-28T08:37:11.782Z,5.57
2019-01-28T08:38:11.769Z,5.59
2019-01-28T08:39:11.735Z,5.65
2019-01-28T08:40:11.713Z,5.62
2019-01-28T08:41:11.693Z,5.70
2019-01-28T08:42:11.669Z,5.65
2019-01-28T08:43:11.647Z,5.70
2019-01-28T08:44:11.624Z,5.70
2019-01-28T08:45:11.602Z,5.75
2019-01-28T08:46:11.583Z,5.66
2019-01-28T08:47:11.562Z,5.72
2019-01-28T08:48:18.198Z,5.69
2019-01-28T08:49:11.513Z,5.73
2019-01-28T08:50:11.491Z,5.76
2019-01-28T08:51:11.468Z,5.80
2019-01-28T08:52:11.446Z,5.84
2019-01-28T08:53:11.427Z,5.91
2019-01-28T08:54:11.401Z,6.00
2019-01-28T08:55:14.394Z,5.94
2019-01-28T08:56:16.618Z,5.94
2019-01-28T08:57:11.334Z,6.02
2019-01-28T08:58:11.314Z,6.06
2019-01-28T08:59:11.289Z,6.00
2019-01-28T09:00:11.271Z,6.11
2019-01-28T09:01:11.244Z,6.11
2019-01-28T09:02:11.226Z,6.05
2019-01-28T09:03:11.212Z,6.06
2019-01-28T09:04:11.177Z,6.21
2019-01-28T09:05:11.159Z,6.15
2019-01-28T09:06:11.139Z,6.18
2019-01-28T09:07:11.111Z,6.16
2019-01-28T09:08:11.090Z,6.12
2019-01-28T09:09:11.076Z,6.16
2019-01-28T09:10:11.050Z,6.15
2019-01-28T09:11:11.025Z,6.13
2019-01-28T09:12:11.003Z,6.11
2019-01-28T09:13:10.993Z,6.11
2019-01-28T09:14:10.958Z,6.21
2019-01-28T09:15:10.949Z,6.12
2019-01-28T09:16:10.914Z,6.12
2019-01-28T09:17:10.891Z,6.15
2019-01-28T09:18:10.879Z,6.08
2019-01-28T09:19:10.858Z,6.05
2019-01-28T09:20:11.304Z,5.98
2019-01-28T09:21:10.805Z,5.97
2019-01-28T09:22:10.784Z,5.98
2019-01-28T09:23:10.762Z,6.05
2019-01-28T09:24:10.748Z,6.05
2019-01-28T09:25:10.715Z,5.93
2019-01-28T09:26:10.702Z,5.94
2019-01-28T09:27:10.680Z,5.88
2019-01-28T09:28:10.652Z,5.95
2019-01-28T09:29:10.627Z,6.00
2019-01-28T09:30:10.601Z,5.87
2019-01-28T09:31:10.583Z,5.93
2019-01-28T09:32:10.561Z,6.03
2019-01-28T09:33:10.545Z,5.91
2019-01-28T09:34:10.514Z,6.06
2019-01-28T09:35:10.495Z,6.05
2019-01-28T09:36:10.474Z,6.05
2019-01-28T09:37:10.450Z,6.00
2019-01-28T09:38:10.424Z,5.97
2019-01-28T09:39:10.405Z,6.00
2019-01-28T09:40:10.381Z,6.02
2019-01-28T09:41:10.359Z,5.94
2019-01-28T09:42:10.334Z,5.97
2019-01-28T09:43:10.325Z,5.95
2019-01-28T09:44:10.296Z,6.00
2019-01-28T09:45:10.269Z,5.97
2019-01-28T09:46:10.245Z,6.02
2019-01-28T09:47:10.224Z,5.94
2019-01-28T09:48:10.200Z,5.98
2019-01-28T09:49:10.184Z,6.02
2019-01-28T09:50:10.155Z,6.03
2019-01-28T09:51:10.133Z,5.90
2019-01-28T09:52:10.110Z,6.03
2019-01-28T09:53:10.098Z,6.00
2019-01-28T09:54:10.070Z,6.02
2019-01-28T09:55:10.047Z,6.03
2019-01-28T09:56:10.026Z,6.06
2019-01-28T09:57:10.010Z,6.09
2019-01-28T09:58:09.978Z,6.05
2019-01-28T09:59:09.955Z,5.90
2019-01-28T10:00:09.934Z,5.93
2019-01-28T10:01:09.913Z,5.93
2019-01-28T10:02:09.889Z,6.08
2019-01-28T10:03:09.875Z,6.06
2019-01-28T10:04:09.855Z,5.93
2019-01-28T10:05:09.824Z,5.93
2019-01-28T10:06:09.803Z,5.94
2019-01-28T10:07:09.780Z,5.95
2019-01-28T10:08:09.757Z,5.95
2019-01-28T10:09:10.281Z,6.00
2019-01-28T10:10:09.712Z,6.05
2019-01-28T10:11:09.690Z,6.02
2019-01-28T10:12:09.668Z,5.95
2019-01-28T10:13:09.647Z,5.97
2019-01-28T10:14:09.625Z,6.03
2019-01-28T10:15:09.612Z,5.95
2019-01-28T10:16:09.578Z,6.05
2019-01-28T10:17:09.557Z,6.09
2019-01-28T10:18:09.535Z,6.00
2019-01-28T10:19:09.506Z,5.98
2019-01-28T10:20:09.487Z,6.05
2019-01-28T10:21:09.465Z,6.03
2019-01-28T10:22:09.443Z,6.11
2019-01-28T10:23:09.418Z,6.15
2019-01-28T10:24:09.401Z,6.12
2019-01-28T10:25:09.381Z,6.13
2019-01-28T10:26:09.362Z,6.13
2019-01-28T10:27:09.329Z,6.15
2019-01-28T10:28:09.311Z,6.13
2019-01-28T10:29:09.287Z,6.12
2019-01-28T10:30:09.264Z,6.18
2019-01-28T10:31:09.252Z,6.11
2019-01-28T10:32:09.222Z,6.12
2019-01-28T10:33:09.204Z,6.19
2019-01-28T10:34:09.188Z,6.15
2019-01-28T10:35:09.151Z,6.16
2019-01-28T10:36:09.133Z,6.18
2019-01-28T10:37:09.108Z,6.19
2019-01-28T10:38:09.086Z,6.24
2019-01-28T10:39:09.060Z,6.16
2019-01-28T10:40:09.041Z,6.13
2019-01-28T10:41:09.019Z,6.24
2019-01-28T10:42:09.987Z,6.25
2019-01-28T10:43:08.975Z,6.19
2019-01-28T10:44:10.278Z,6.25
2019-01-28T10:45:08.929Z,6.27
2019-01-28T10:46:08.909Z,6.25
2019-01-28T10:47:08.887Z,6.34
2019-01-28T10:48:08.863Z,6.24
2019-01-28T10:49:08.844Z,6.19
2019-01-28T10:50:08.823Z,6.30
2019-01-28T10:51:08.802Z,6.21
2019-01-28T10:52:08.776Z,6.19
2019-01-28T10:53:08.800Z,6.25
2019-01-28T10:54:08.729Z,6.21
2019-01-28T10:55:08.707Z,6.24
2019-01-28T10:56:08.687Z,6.21
2019-01-28T10:57:08.666Z,6.25
2019-01-28T10:58:08.642Z,6.25
2019-01-28T10:59:08.619Z,6.12
2019-01-28T11:00:11.553Z,6.21
2019-01-28T11:01:08.584Z,6.24
2019-01-28T11:02:08.561Z,6.31
2019-01-28T11:03:08.536Z,6.28
2019-01-28T11:04:08.509Z,6.32
2019-01-28T11:05:08.499Z,6.34
2019-01-28T11:06:08.480Z,6.37
2019-01-28T11:07:08.444Z,6.47
2019-01-28T11:08:08.431Z,6.42
2019-01-28T11:09:08.399Z,6.53
2019-01-28T11:10:08.459Z,6.56
2019-01-28T11:11:08.388Z,6.57
2019-01-28T11:12:08.346Z,6.60
2019-01-28T11:13:08.384Z,6.64
2019-01-28T11:14:08.391Z,6.61
2019-01-28T11:15:08.316Z,6.75
2019-01-28T11:16:08.246Z,6.68
2019-01-28T11:17:08.337Z,6.71
2019-01-28T11:18:08.227Z,6.71
2019-01-28T11:19:08.252Z,6.73
2019-01-28T11:20:08.265Z,6.71
2019-01-28T11:21:08.178Z,6.75
2019-01-28T11:22:08.229Z,6.70
2019-01-28T11:23:08.230Z,6.73
2019-01-28T11:24:08.072Z,6.78
2019-01-28T11:25:08.146Z,6.70
2019-01-28T11:26:08.102Z,6.75
2019-01-28T11:27:08.103Z,6.70
2019-01-28T11:28:07.991Z,6.74
2019-01-28T11:29:07.982Z,6.68
2019-01-28T11:30:07.945Z,6.63
2019-01-28T11:31:08.006Z,6.68
2019-01-28T11:32:07.999Z,6.64
2019-01-28T11:33:08.058Z,6.70
2019-01-28T11:34:07.931Z,6.64
2019-01-28T11:35:07.831Z,6.65
2019-01-28T11:36:07.815Z,6.65
2019-01-28T11:37:07.793Z,6.70
2019-01-28T11:38:07.767Z,6.61
2019-01-28T11:39:07.744Z,6.68
2019-01-28T11:40:07.869Z,6.56
2019-01-28T11:41:07.800Z,6.60
2019-01-28T11:42:07.677Z,6.61
2019-01-28T11:43:07.776Z,6.61
2019-01-28T11:44:07.817Z,6.53
2019-01-28T11:45:07.743Z,6.60
2019-01-28T11:46:07.637Z,6.61
2019-01-28T11:47:07.575Z,6.57
2019-01-28T11:48:07.697Z,6.53
2019-01-28T11:49:07.531Z,6.56
2019-01-28T11:50:07.505Z,6.47
2019-01-28T11:51:07.490Z,6.49
2019-01-28T11:52:07.466Z,6.43
2019-01-28T11:53:07.453Z,6.35
2019-01-28T11:54:07.418Z,6.43
2019-01-28T11:55:07.395Z,6.40
2019-01-28T11:56:07.375Z,6.47
2019-01-28T11:57:07.353Z,6.38
2019-01-28T11:58:07.332Z,6.37
2019-01-28T11:59:07.313Z,6.37
2019-01-28T12:00:07.289Z,6.37
2019-01-28T12:01:07.268Z,6.37
2019-01-28T12:02:07.248Z,6.43
2019-01-28T12:03:07.235Z,6.40
2019-01-28T12:04:07.202Z,6.40
2019-01-28T12:05:07.180Z,6.52
2019-01-28T12:06:07.156Z,6.42
2019-01-28T12:07:07.136Z,6.50
2019-01-28T12:08:07.108Z,6.34
2019-01-28T12:09:07.098Z,6.38
2019-01-28T12:10:07.075Z,6.40
2019-01-28T12:11:07.049Z,6.35
2019-01-28T12:12:07.029Z,6.35
2019-01-28T12:13:07.002Z,6.38
2019-01-28T12:14:06.978Z,6.37
2019-01-28T12:15:06.958Z,6.34
2019-01-28T12:16:06.945Z,6.37
2019-01-28T12:17:06.914Z,6.25
2019-01-28T12:18:06.893Z,6.21
2019-01-28T12:19:13.976Z,6.13
2019-01-28T12:20:06.857Z,6.09
2019-01-28T12:21:06.831Z,6.03
2019-01-28T12:22:06.804Z,6.03
2019-01-28T12:23:06.787Z,6.00
2019-01-28T12:24:06.759Z,6.05
2019-01-28T12:25:06.740Z,6.09
2019-01-28T12:26:06.720Z,6.06
2019-01-28T12:27:06.691Z,6.02
2019-01-28T12:28:06.672Z,6.13
2019-01-28T12:29:06.648Z,6.09
2019-01-28T12:30:06.629Z,6.08
2019-01-28T12:31:06.607Z,6.02
2019-01-28T12:32:06.584Z,6.05
2019-01-28T12:33:06.561Z,6.03
2019-01-28T12:34:06.538Z,6.05
2019-01-28T12:35:06.522Z,6.19
2019-01-28T12:36:06.495Z,6.16
2019-01-28T12:37:06.493Z,6.24
2019-01-28T12:38:06.457Z,6.28
2019-01-28T12:39:06.428Z,6.25
2019-01-28T12:40:06.412Z,6.38
2019-01-28T12:41:06.388Z,6.37
2019-01-28T12:42:06.361Z,6.35
2019-01-28T12:43:06.343Z,6.46
2019-01-28T12:44:06.319Z,6.42
2019-01-28T12:45:06.300Z,6.43
2019-01-28T12:46:06.277Z,6.49
2019-01-28T12:47:06.255Z,6.37
2019-01-28T12:48:06.234Z,6.42
2019-01-28T12:49:06.213Z,6.55
2019-01-28T12:50:06.198Z,6.34
2019-01-28T12:51:06.166Z,6.35
2019-01-28T12:52:06.146Z,6.37
2019-01-28T12:53:06.127Z,6.34
2019-01-28T12:54:06.131Z,6.32
2019-01-28T12:55:06.083Z,6.30
2019-01-28T12:56:06.074Z,6.31
2019-01-28T12:57:06.038Z,6.34
2019-01-28T12:58:07.013Z,6.27
2019-01-28T12:59:09.052Z,6.27
2019-01-28T13:00:05.970Z,6.34
2019-01-28T13:01:05.948Z,6.24
2019-01-28T13:02:05.933Z,6.21
2019-01-28T13:03:05.911Z,6.21
2019-01-28T13:04:05.887Z,6.25
2019-01-28T13:05:05.869Z,6.28
2019-01-28T13:06:05.839Z,6.27
2019-01-28T13:07:05.823Z,6.15
2019-01-28T13:08:05.798Z,6.16
2019-01-28T13:09:05.774Z,6.15
2019-01-28T13:10:05.752Z,6.16
2019-01-28T13:11:05.729Z,6.08
2019-01-28T13:12:05.709Z,6.06
2019-01-28T13:13:05.690Z,6.00
2019-01-28T13:14:05.665Z,5.80
2019-01-28T13:15:05.643Z,5.80
2019-01-28T13:16:05.620Z,5.91
2019-01-28T13:17:05.599Z,5.80
2019-01-28T13:18:05.579Z,5.80